Time,TemperatureF,DewpointF,PressureIn,WindDirection,WindDirectionDegrees,WindSpeedMPH,WindSpeedGustMPH,Humidity,HourlyPrecipIn,Conditions,Clouds,dailyrainin,SoftwareType,DateUTC
2013-01-02 00:04:00,49.3,45.3,29.84,ENE,67,0.0,-999.0,86,-99.99,,,0.00,Acu-Link.com,2013-01-02 05:04:00,
2013-01-02 00:19:00,49.3,45.3,29.83,South,180,0.0,-999.0,86,-99.99,,,0.02,Acu-Link.com,2013-01-02 05:19:00,
2013-01-02 00:34:00,49.3,45.3,29.84,WSW,247,0.0,-999.0,86,-99.99,,,0.03,Acu-Link.com,2013-01-02 05:34:00,
2013-01-02 00:49:00,49.1,45.1,29.83,ESE,112,0.0,-999.0,86,-99.99,,,0.04,Acu-Link.com,2013-01-02 05:49:00,
2013-01-02 01:04:00,49.1,45.4,29.84,West,270,0.0,-999.0,87,-99.99,,,0.05,Acu-Link.com,2013-01-02 06:04:00,
2013-01-02 01:19:00,49.1,45.4,29.84,West,270,0.0,-999.0,87,-99.99,,,0.06,Acu-Link.com,2013-01-02 06:19:00,
2013-01-02 01:34:00,49.1,45.4,29.85,ESE,112,0.0,-999.0,87,-99.99,,,0.07,Acu-Link.com,2013-01-02 06:34:00,
2013-01-02 01:49:00,49.1,45.4,29.83,South,180,0.0,-999.0,87,-99.99,,,0.09,Acu-Link.com,2013-01-02 06:49:00,
2013-01-02 02:04:00,48.9,45.2,29.82,South,180,0.0,-999.0,87,-99.99,,,0.09,Acu-Link.com,2013-01-02 07:04:00,
2013-01-02 02:19:00,48.9,45.2,29.79,SW,225,0.0,-999.0,87,-99.99,,,0.09,Acu-Link.com,2013-01-02 07:19:00,
2013-01-02 02:35:00,48.9,45.2,29.82,ESE,112,0.0,-999.0,87,-99.99,,,0.10,Acu-Link.com,2013-01-02 07:35:00,
2013-01-02 02:50:00,48.9,45.2,29.81,NW,315,0.0,-999.0,87,-99.99,,,0.10,Acu-Link.com,2013-01-02 07:50:00,
2013-01-02 03:05:00,48.9,45.2,29.83,East,90,0.0,-999.0,87,-99.99,,,0.10,Acu-Link.com,2013-01-02 08:05:00,
2013-01-02 03:20:00,48.7,45.0,29.84,SW,225,0.0,-999.0,87,-99.99,,,0.11,Acu-Link.com,2013-01-02 08:20:00,
2013-01-02 03:35:00,48.7,45.0,29.84,WSW,247,0.0,-999.0,87,-99.99,,,0.11,Acu-Link.com,2013-01-02 08:35:00,
2013-01-02 03:50:00,48.7,45.0,29.83,SSW,202,0.0,-999.0,87,-99.99,,,0.11,Acu-Link.com,2013-01-02 08:50:00,
2013-01-02 04:06:00,48.7,45.0,29.84,WNW,292,0.0,-999.0,87,-99.99,,,0.11,Acu-Link.com,2013-01-02 09:06:00,
2013-01-02 04:22:00,48.7,45.0,29.84,NE,45,0.0,-999.0,87,-99.99,,,0.11,Acu-Link.com,2013-01-02 09:22:00,
2013-01-02 04:37:00,48.7,45.0,29.85,SSE,157,0.0,-999.0,87,-99.99,,,0.11,Acu-Link.com,2013-01-02 09:37:00,
2013-01-02 04:52:00,48.7,45.0,29.85,NE,45,0.0,-999.0,87,-99.99,,,0.11,Acu-Link.com,2013-01-02 09:52:00,
2013-01-02 05:07:00,48.7,45.0,29.85,NNW,337,0.0,-999.0,87,-99.99,,,0.11,Acu-Link.com,2013-01-02 10:07:00,
2013-01-02 05:22:00,48.6,44.9,29.85,North,0,0.0,-999.0,87,-99.99,,,0.11,Acu-Link.com,2013-01-02 10:22:00,
2013-01-02 05:37:00,48.6,44.9,29.86,West,270,0.0,-999.0,87,-99.99,,,0.11,Acu-Link.com,2013-01-02 10:37:00,
2013-01-02 05:53:00,48.6,44.9,29.88,NW,315,0.0,-999.0,87,-99.99,,,0.11,Acu-Link.com,2013-01-02 10:53:00,
2013-01-02 06:08:00,48.4,44.7,29.87,ESE,112,0.0,-999.0,87,-99.99,,,0.11,Acu-Link.com,2013-01-02 11:08:00,
2013-01-02 06:23:00,48.4,44.7,29.87,West,270,0.0,-999.0,87,-99.99,,,0.11,Acu-Link.com,2013-01-02 11:23:00,
2013-01-02 06:38:00,48.2,44.5,29.88,West,270,0.0,-999.0,87,-99.99,,,0.11,Acu-Link.com,2013-01-02 11:38:00,
2013-01-02 06:53:00,48.2,44.5,29.88,East,90,0.0,-999.0,87,-99.99,,,0.11,Acu-Link.com,2013-01-02 11:53:00,
2013-01-02 07:08:00,48.0,44.3,29.89,WNW,292,0.0,-999.0,87,-99.99,,,0.11,Acu-Link.com,2013-01-02 12:08:00,
2013-01-02 07:23:00,47.8,44.1,29.89,NE,45,0.0,-999.0,87,-99.99,,,0.11,Acu-Link.com,2013-01-02 12:23:00,
2013-01-02 07:38:00,47.8,44.1,29.91,WNW,292,0.0,-999.0,87,-99.99,,,0.11,Acu-Link.com,2013-01-02 12:38:00,
2013-01-02 07:53:00,47.8,44.1,29.90,ESE,112,0.0,-999.0,87,-99.99,,,0.11,Acu-Link.com,2013-01-02 12:53:00,
2013-01-02 08:09:00,47.8,44.1,29.91,West,270,0.0,-999.0,87,-99.99,,,0.11,Acu-Link.com,2013-01-02 13:09:00,
2013-01-02 08:24:00,47.8,44.1,29.91,West,270,0.0,-999.0,87,-99.99,,,0.11,Acu-Link.com,2013-01-02 13:24:00,
2013-01-02 08:39:00,48.0,44.3,29.92,West,270,0.0,-999.0,87,-99.99,,,0.11,Acu-Link.com,2013-01-02 13:39:00,
2013-01-02 08:54:00,48.6,44.9,29.93,West,270,0.0,-999.0,87,-99.99,,,0.11,Acu-Link.com,2013-01-02 13:54:00,
2013-01-02 09:09:00,49.1,45.4,29.95,NNE,22,0.0,-999.0,87,-99.99,,,0.11,Acu-Link.com,2013-01-02 14:09:00,
2013-01-02 09:24:00,49.3,45.6,29.95,NE,45,0.0,-999.0,87,-99.99,,,0.11,Acu-Link.com,2013-01-02 14:24:00,
2013-01-02 09:39:00,50.0,46.3,29.95,West,270,0.0,-999.0,87,-99.99,,,0.11,Acu-Link.com,2013-01-02 14:39:00,
2013-01-02 09:54:00,50.7,47.0,29.96,ESE,112,0.0,-999.0,87,-99.99,,,0.11,Acu-Link.com,2013-01-02 14:54:00,
2013-01-02 10:09:00,51.8,46.8,29.95,ESE,112,0.0,-999.0,83,-99.99,,,0.11,Acu-Link.com,2013-01-02 15:09:00,
2013-01-02 10:25:00,52.0,46.4,29.98,WNW,292,0.0,-999.0,81,-99.99,,,0.11,Acu-Link.com,2013-01-02 15:25:00,
2013-01-02 10:40:00,52.7,46.0,29.97,NNE,22,2.2,-999.0,78,-99.99,,,0.11,Acu-Link.com,2013-01-02 15:40:00,
2013-01-02 10:55:00,53.2,44.8,29.98,ESE,112,1.7,-999.0,73,-99.99,,,0.11,Acu-Link.com,2013-01-02 15:55:00,
2013-01-02 11:10:00,54.0,44.8,29.97,East,90,1.7,-999.0,71,-99.99,,,0.11,Acu-Link.com,2013-01-02 16:10:00,
2013-01-02 11:25:00,53.8,44.2,29.96,ESE,112,0.0,-999.0,70,-99.99,,,0.11,Acu-Link.com,2013-01-02 16:25:00,
2013-01-02 11:40:00,54.1,43.0,29.97,WSW,247,2.2,-999.0,66,-99.99,,,0.11,Acu-Link.com,2013-01-02 16:40:00,
2013-01-02 11:55:00,54.1,43.0,29.95,ESE,112,0.0,-999.0,66,-99.99,,,0.11,Acu-Link.com,2013-01-02 16:55:00,
2013-01-02 12:10:00,54.7,43.2,29.96,NNE,22,0.0,-999.0,65,-99.99,,,0.11,Acu-Link.com,2013-01-02 17:10:00,
2013-01-02 12:25:00,54.5,43.0,29.96,ESE,112,0.0,-999.0,65,-99.99,,,0.11,Acu-Link.com,2013-01-02 17:25:00,
2013-01-02 12:40:00,53.8,43.5,29.95,NNE,22,0.0,-999.0,68,-99.99,,,0.11,Acu-Link.com,2013-01-02 17:40:00,
2013-01-02 12:56:00,53.8,43.9,29.94,WSW,247,0.0,-999.0,69,-99.99,,,0.11,Acu-Link.com,2013-01-02 17:56:00,
2013-01-02 13:11:00,55.9,43.9,29.94,South,180,0.0,-999.0,64,-99.99,,,0.11,Acu-Link.com,2013-01-02 18:11:00,
2013-01-02 13:26:00,56.1,44.5,29.92,ESE,112,0.0,-999.0,65,-99.99,,,0.11,Acu-Link.com,2013-01-02 18:26:00,
2013-01-02 13:41:00,54.7,44.3,29.92,ESE,112,0.0,-999.0,68,-99.99,,,0.11,Acu-Link.com,2013-01-02 18:41:00,
2013-01-02 13:56:00,54.5,44.2,29.92,East,90,1.1,-999.0,68,-99.99,,,0.11,Acu-Link.com,2013-01-02 18:56:00,
2013-01-02 14:11:00,55.0,44.6,29.92,East,90,1.1,-999.0,68,-99.99,,,0.11,Acu-Link.com,2013-01-02 19:11:00,
2013-01-02 14:27:00,54.0,43.3,29.92,NE,45,2.2,-999.0,67,-99.99,,,0.11,Acu-Link.com,2013-01-02 19:27:00,
2013-01-02 14:42:00,53.4,43.9,29.93,ESE,112,1.1,-999.0,70,-99.99,,,0.11,Acu-Link.com,2013-01-02 19:42:00,
2013-01-02 14:57:00,53.1,43.9,29.92,East,90,1.7,-999.0,71,-99.99,,,0.11,Acu-Link.com,2013-01-02 19:57:00,
2013-01-02 15:12:00,52.7,43.2,29.93,East,90,1.1,-999.0,70,-99.99,,,0.11,Acu-Link.com,2013-01-02 20:12:00,
2013-01-02 15:27:00,52.7,42.8,29.93,NNE,22,1.7,-999.0,69,-99.99,,,0.11,Acu-Link.com,2013-01-02 20:27:00,
2013-01-02 15:42:00,52.3,43.2,29.94,ESE,112,0.0,-999.0,71,-99.99,,,0.11,Acu-Link.com,2013-01-02 20:42:00,
2013-01-02 15:57:00,52.0,43.3,29.95,ESE,112,0.0,-999.0,72,-99.99,,,0.11,Acu-Link.com,2013-01-02 20:57:00,
2013-01-02 16:12:00,51.1,42.4,29.94,ESE,112,2.2,-999.0,72,-99.99,,,0.11,Acu-Link.com,2013-01-02 21:12:00,
2013-01-02 16:27:00,50.4,42.4,29.94,East,90,2.2,-999.0,74,-99.99,,,0.11,Acu-Link.com,2013-01-02 21:27:00,
2013-01-02 16:43:00,49.8,42.2,29.95,East,90,0.0,-999.0,75,-99.99,,,0.11,Acu-Link.com,2013-01-02 21:43:00,
2013-01-02 16:58:00,49.6,42.4,29.96,East,90,0.0,-999.0,76,-99.99,,,0.11,Acu-Link.com,2013-01-02 21:58:00,
2013-01-02 17:13:00,49.3,42.1,29.96,East,90,0.0,-999.0,76,-99.99,,,0.11,Acu-Link.com,2013-01-02 22:13:00,
2013-01-02 17:28:00,48.9,42.0,29.97,East,90,1.7,-999.0,77,-99.99,,,0.11,Acu-Link.com,2013-01-02 22:28:00,
2013-01-02 17:43:00,48.7,41.8,29.97,ESE,112,0.0,-999.0,77,-99.99,,,0.11,Acu-Link.com,2013-01-02 22:43:00,
2013-01-02 17:58:00,48.6,42.1,29.97,East,90,1.1,-999.0,78,-99.99,,,0.11,Acu-Link.com,2013-01-02 22:58:00,
2013-01-02 18:13:00,48.4,41.9,29.99,East,90,1.7,-999.0,78,-99.99,,,0.11,Acu-Link.com,2013-01-02 23:13:00,
2013-01-02 18:28:00,48.4,41.5,29.98,East,90,1.7,-999.0,77,-99.99,,,0.11,Acu-Link.com,2013-01-02 23:28:00,
2013-01-02 18:43:00,48.2,41.3,29.99,ESE,112,1.1,-999.0,77,-99.99,,,0.11,Acu-Link.com,2013-01-02 23:43:00,
2013-01-02 18:59:00,48.0,41.5,29.99,NE,45,0.0,-999.0,78,-99.99,,,0.11,Acu-Link.com,2013-01-02 23:59:00,
2013-01-02 19:14:00,47.8,41.3,29.99,NNE,22,0.0,-999.0,78,-99.99,,,0.11,Acu-Link.com,2013-01-03 00:14:00,
2013-01-02 19:29:00,47.8,40.9,30.00,NNE,22,0.0,-999.0,77,-99.99,,,0.11,Acu-Link.com,2013-01-03 00:29:00,
2013-01-02 19:44:00,47.7,40.8,30.00,ENE,67,0.0,-999.0,77,-99.99,,,0.11,Acu-Link.com,2013-01-03 00:44:00,
2013-01-02 19:59:00,47.3,40.1,30.01,East,90,0.0,-999.0,76,-99.99,,,0.11,Acu-Link.com,2013-01-03 00:59:00,
2013-01-02 20:14:00,47.3,40.1,30.02,West,270,0.0,-999.0,76,-99.99,,,0.11,Acu-Link.com,2013-01-03 01:14:00,
2013-01-02 20:29:00,47.1,39.9,30.01,East,90,1.7,-999.0,76,-99.99,,,0.11,Acu-Link.com,2013-01-03 01:29:00,
2013-01-02 20:44:00,47.1,39.9,30.02,ENE,67,1.7,-999.0,76,-99.99,,,0.11,Acu-Link.com,2013-01-03 01:44:00,
2013-01-02 20:59:00,46.9,39.7,30.02,East,90,0.0,-999.0,76,-99.99,,,0.11,Acu-Link.com,2013-01-03 01:59:00,
2013-01-02 21:14:00,46.9,39.7,30.02,SE,135,0.0,-999.0,76,-99.99,,,0.11,Acu-Link.com,2013-01-03 02:14:00,
2013-01-02 21:30:00,46.8,39.6,30.04,South,180,0.0,-999.0,76,-99.99,,,0.11,Acu-Link.com,2013-01-03 02:30:00,
2013-01-02 21:45:00,46.8,39.6,30.04,NE,45,1.7,-999.0,76,-99.99,,,0.11,Acu-Link.com,2013-01-03 02:45:00,
2013-01-02 22:00:00,46.6,39.4,30.04,East,90,0.0,-999.0,76,-99.99,,,0.11,Acu-Link.com,2013-01-03 03:00:00,
2013-01-02 22:15:00,46.6,39.4,30.05,ESE,112,0.0,-999.0,76,-99.99,,,0.11,Acu-Link.com,2013-01-03 03:15:00,
2013-01-02 23:00:00,46.2,39.4,30.04,NW,315,0.0,-999.0,77,-99.99,,,0.11,Acu-Link.com,2013-01-03 04:00:00,
2013-01-02 23:15:00,46.2,40.1,30.04,NE,45,0.0,-999.0,79,-99.99,,,0.11,Acu-Link.com,2013-01-03 04:15:00,
2013-01-02 23:30:00,46.0,40.2,30.05,WSW,247,0.0,-999.0,80,-99.99,,,0.11,Acu-Link.com,2013-01-03 04:30:00,
2013-01-02 23:46:00,45.5,39.7,30.03,East,90,0.0,-999.0,80,-99.99,,,0.11,Acu-Link.com,2013-01-03 04:46:00,